Impacts METAR Board
IDs:

KT35 - Cameron Muni, TX, US

Updated at: 1400 UTC 20 Oct 2021
Potential Impact None Slight Moderate High
Time 20/02Z 20/03Z 20/04Z 20/05Z 20/06Z 20/07Z 20/08Z 20/09Z 20/10Z 20/11Z 20/12Z 20/13Z 20/14Z
Temp71 72 70 69 69 68 67 65 65 63 62 62 64
Dewpt60 60 63 65 65 65 65 64 64 62 61 61 63
Altim30.02 30.04 30.05 30.07 30.07 30.07 30.07 30.07 30.07 30.08 30.09 30.11 30.11
VIS10 10 10 10 10 10 10 10 10 0.5 0.25 0.25 0.25
CIG-- -- -- -- -- -- -- -- -- 8 2 2 2
CoverCLRCLRCLRCLRCLRCLRCLRCLRCLRBKNOVCOVCOVC
FltCatVFRVFRVFRVFRVFRVFRVFRVFRVFRLIFRLIFRLIFRLIFR
WX------------------FGFGFGFG
WDir14015015016016017017000000
WSpd6 5 6 7 5 5 4 0 0 0 0 0
WGst-- -- -- -- -- -- -- -- -- -- -- -- --
Raw hourly METARs
KT35 200155Z AUTO 14006KT 10SM CLR 22/16 A3002 RMK AO2 T02170155
KT35 200255Z AUTO 15005KT 10SM CLR 22/16 A3004 RMK AO2 T02200158
KT35 200355Z AUTO 15006KT 10SM CLR 21/17 A3005 RMK AO2 T02130174
KT35 200455Z AUTO 16007KT 10SM CLR 21/18 A3007 RMK AO2 T02070183
KT35 200555Z AUTO 16005KT 10SM CLR 20/19 A3007 RMK AO2 LTG DSNT SE T02030185 10235 20203 402770150
KT35 200655Z AUTO 17005KT 10SM CLR 20/19 A3007 RMK AO2 T02000185
KT35 200755Z AUTO 17004KT 10SM CLR 20/18 A3007 RMK AO2 T01950182
KT35 200855Z AUTO 10SM CLR 19/18 A3007 RMK AO2 T01850175
KT35 200955Z AUTO 00000KT 10SM CLR 18/18 A3007 RMK AO2 T01840176
KT35 201055Z AUTO 00000KT 1/2SM FG BKN008 17/17 A3008 RMK AO2 T01730168
KT35 201155Z AUTO 00000KT 1/4SM FG BKN002 OVC005 17/16 A3009 RMK AO2 70003 T01670162 10202 20167
KT35 201255Z AUTO 00000KT M1/4SM FG OVC002 17/16 A3011 RMK AO2 T01660162
KT35 201355Z AUTO 00000KT M1/4SM FG OVC002 18/17 A3011 RMK AO2 T01750170